GEML

Melilla Airport

Melilla, Spain
METAR GEML 201500Z 07005KT 030V110 9999 FEW025 16/12 Q1014
Observed Flight Rules
Feb-20 @ 15:00 UTC (2 hours ago) Visual Flight Rules
Wind Visibility Clouds
70° at 5 knots 10,000+ meters
  • Few at 2,500' AGL
Temperatures Readings
Current 16°C / 61°F
Dewpoint 12°C / 54°F
Humidity 77%
Altimeter 29.94" Hg
Pressure 1014 hPa
Elevation 55
METAR GEML 201500Z 07005KT 030V110 9999 FEW025 16/12 Q1014
Observed Flight Rules
Feb-20 @ 15:00 UTC
(2 hours ago)
VFR
Wind Visibility
70° at 5 knots 10,000+ meters
Clouds
  • Few at 2,500' AGL
Temperature Dewpoint
16°C / 61°F 12°C / 54°F
Humidity Altimeter Pressure
77% 29.94" Hg 1014 hPa